createdAt,value
2019-04-07T00:00:45.162Z,6.1
2019-04-07T00:01:35.422Z,6.1
2019-04-07T00:02:25.144Z,6.1
2019-04-07T00:03:15.199Z,6.1
2019-04-07T00:04:06.908Z,6
2019-04-07T00:04:57.320Z,6
2019-04-07T00:05:47.229Z,6
2019-04-07T00:06:37.318Z,6
2019-04-07T00:07:29.862Z,6
2019-04-07T00:08:16.992Z,6
2019-04-07T00:09:07.074Z,5.9
2019-04-07T00:09:56.906Z,5.9
2019-04-07T00:10:46.951Z,5.9
2019-04-07T00:11:36.903Z,5.9
2019-04-07T00:12:29.682Z,5.9
2019-04-07T00:13:17.115Z,5.9
2019-04-07T00:14:07.082Z,5.9
2019-04-07T00:14:56.897Z,5.9
2019-04-07T00:15:46.931Z,5.9
2019-04-07T00:16:37.987Z,5.8
2019-04-07T00:17:31.118Z,5.9
2019-04-07T00:18:18.000Z,5.8
2019-04-07T00:19:07.939Z,5.8
2019-04-07T00:19:58.024Z,5.8
2019-04-07T00:20:48.482Z,5.8
2019-04-07T00:21:37.976Z,5.8
2019-04-07T00:22:31.095Z,5.8
2019-04-07T00:23:17.980Z,5.8
2019-04-07T00:24:07.959Z,5.8
2019-04-07T00:24:58.352Z,5.7
2019-04-07T00:25:48.032Z,5.7
2019-04-07T00:26:38.004Z,5.7
2019-04-07T00:27:28.183Z,5.7
2019-04-07T00:28:18.419Z,5.7
2019-04-07T00:29:08.655Z,5.7
2019-04-07T00:29:58.173Z,5.7
2019-04-07T00:30:48.028Z,5.7
2019-04-07T00:31:38.591Z,5.7
2019-04-07T00:32:28.423Z,5.7
2019-04-07T00:33:18.136Z,5.7
2019-04-07T00:34:07.968Z,5.7
2019-04-07T00:34:58.552Z,5.7
2019-04-07T00:35:47.972Z,5.6
2019-04-07T00:36:37.978Z,5.6
2019-04-07T00:37:28.305Z,5.6
2019-04-07T00:38:17.983Z,5.6
2019-04-07T00:39:07.951Z,5.6
2019-04-07T00:39:57.980Z,5.6
2019-04-07T00:40:48.123Z,5.6
2019-04-07T00:41:38.665Z,5.6
2019-04-07T00:42:34.685Z,5.5
2019-04-07T00:43:21.500Z,5.6
2019-04-07T00:44:11.457Z,5.5
2019-04-07T00:45:02.150Z,5.5
2019-04-07T00:45:51.456Z,5.5
2019-04-07T00:46:41.386Z,5.5
2019-04-07T00:47:35.264Z,5.5
2019-04-07T00:48:21.441Z,5.5
2019-04-07T00:49:11.617Z,5.5
2019-04-07T00:50:01.515Z,5.4
2019-04-07T00:50:51.597Z,5.4
2019-04-07T00:51:42.084Z,5.4
2019-04-07T00:52:31.864Z,5.4
2019-04-07T00:53:22.068Z,5.4
2019-04-07T00:54:11.665Z,5.4
2019-04-07T00:55:02.273Z,5.4
2019-04-07T00:55:51.779Z,5.3
2019-04-07T00:56:42.295Z,5.4
2019-04-07T00:57:32.718Z,5.3
2019-04-07T00:58:21.690Z,5.3
2019-04-07T00:59:11.665Z,5.3
2019-04-07T01:00:01.731Z,5.3
2019-04-07T01:00:52.125Z,5.3
2019-04-07T01:01:41.698Z,5.3
2019-04-07T01:02:32.257Z,5.3
2019-04-07T01:03:21.700Z,5.3
2019-04-07T01:04:12.231Z,5.3
2019-04-07T01:05:01.824Z,5.3
2019-04-07T01:05:52.169Z,5.3
2019-04-07T01:06:42.189Z,5.3
2019-04-07T01:07:32.083Z,5.3
2019-04-07T01:08:21.664Z,5.2
2019-04-07T01:09:12.314Z,5.2
2019-04-07T01:10:02.096Z,5.2
2019-04-07T01:10:52.436Z,5.2
2019-04-07T01:11:42.146Z,5.2
2019-04-07T01:12:31.669Z,5.1
2019-04-07T01:13:21.990Z,5.2
2019-04-07T01:14:11.685Z,5.2
2019-04-07T01:15:02.291Z,5.2
2019-04-07T01:15:51.727Z,5.1
2019-04-07T01:16:41.810Z,5.1
2019-04-07T01:17:32.374Z,5.1
2019-04-07T01:18:21.648Z,5.1
2019-04-07T01:19:12.258Z,5.1
2019-04-07T01:20:01.670Z,5.1
2019-04-07T01:20:51.881Z,5.1
2019-04-07T01:21:41.701Z,5.1
2019-04-07T01:22:34.581Z,5.1
2019-04-07T01:23:23.501Z,5.1
2019-04-07T01:24:13.532Z,5
2019-04-07T01:25:03.848Z,5
2019-04-07T01:25:53.395Z,5
2019-04-07T01:26:43.549Z,5
2019-04-07T01:27:33.657Z,5
2019-04-07T01:28:23.378Z,5
2019-04-07T01:29:13.509Z,5
2019-04-07T01:30:03.999Z,5
2019-04-07T01:30:53.410Z,4.9
2019-04-07T01:31:44.175Z,4.9
2019-04-07T01:32:33.303Z,4.9
2019-04-07T01:33:23.578Z,4.9
2019-04-07T01:34:15.029Z,4.9
2019-04-07T01:35:03.370Z,4.9
2019-04-07T01:35:54.185Z,4.9
2019-04-07T01:36:43.435Z,4.9
2019-04-07T01:37:33.324Z,4.9
2019-04-07T01:38:23.460Z,4.9
2019-04-07T01:39:14.070Z,4.9
2019-04-07T01:40:03.417Z,4.9
2019-04-07T01:40:53.407Z,4.9
2019-04-07T01:41:43.421Z,4.9
2019-04-07T01:42:33.453Z,4.8
2019-04-07T01:43:23.846Z,4.8
2019-04-07T01:44:14.364Z,4.8
2019-04-07T01:45:03.391Z,4.8
2019-04-07T01:45:53.468Z,4.8
2019-04-07T01:46:43.589Z,4.8
2019-04-07T01:47:34.268Z,4.8
2019-04-07T01:48:24.187Z,4.8
2019-04-07T01:49:14.052Z,4.8
2019-04-07T01:50:03.605Z,4.8
2019-04-07T01:50:53.918Z,4.8
2019-04-07T01:51:45.568Z,4.7
2019-04-07T01:52:33.762Z,4.7
2019-04-07T01:53:24.447Z,4.7
2019-04-07T01:54:14.214Z,4.7
2019-04-07T01:55:05.511Z,4.7
2019-04-07T01:55:56.420Z,4.7
2019-04-07T01:56:46.501Z,4.7
2019-04-07T01:57:36.408Z,4.7
2019-04-07T01:58:26.383Z,4.7
2019-04-07T01:59:16.617Z,4.7
2019-04-07T02:00:06.217Z,4.7
2019-04-07T02:00:56.704Z,4.7
2019-04-07T02:01:46.899Z,4.6
2019-04-07T02:02:36.767Z,4.6
2019-04-07T02:03:26.771Z,4.6
2019-04-07T02:04:17.154Z,4.6
2019-04-07T02:05:06.800Z,4.6
2019-04-07T02:06:00.539Z,4.6
2019-04-07T02:06:47.547Z,4.6
2019-04-07T02:07:37.406Z,4.6
2019-04-07T02:08:27.333Z,4.6
2019-04-07T02:09:17.100Z,4.6
2019-04-07T02:10:07.260Z,4.6
2019-04-07T02:10:57.299Z,4.5
2019-04-07T02:11:47.902Z,4.5
2019-04-07T02:12:37.639Z,4.5
2019-04-07T02:13:27.557Z,4.5
2019-04-07T02:14:17.535Z,4.5
2019-04-07T02:15:07.500Z,4.5
2019-04-07T02:15:57.698Z,4.5
2019-04-07T02:16:48.952Z,4.5
2019-04-07T02:17:38.305Z,4.5
2019-04-07T02:18:28.833Z,4.5
2019-04-07T02:19:19.004Z,4.5
2019-04-07T02:20:08.210Z,4.5
2019-04-07T02:20:58.936Z,4.5
2019-04-07T02:21:48.346Z,4.5
2019-04-07T02:22:38.586Z,4.4
2019-04-07T02:23:28.261Z,4.4
2019-04-07T02:24:18.226Z,4.4
2019-04-07T02:25:08.224Z,4.4
2019-04-07T02:25:58.240Z,4.4
2019-04-07T02:26:51.088Z,4.4
2019-04-07T02:27:38.349Z,4.4
2019-04-07T02:28:28.296Z,4.4
2019-04-07T02:29:18.312Z,4.4
2019-04-07T02:30:08.355Z,4.4
2019-04-07T02:30:58.868Z,4.4
2019-04-07T02:31:48.208Z,4.4
2019-04-07T02:32:38.266Z,4.4
2019-04-07T02:33:28.829Z,4.4
2019-04-07T02:34:18.248Z,4.4
2019-04-07T02:35:08.728Z,4.3
2019-04-07T02:36:13.238Z,4.3
2019-04-07T02:36:48.463Z,4.3
2019-04-07T02:37:38.704Z,4.3
2019-04-07T02:38:31.592Z,4.3
2019-04-07T02:39:21.411Z,4.3
2019-04-07T02:40:11.701Z,4.3
2019-04-07T02:41:00.724Z,4.3
2019-04-07T02:41:51.734Z,4.3
2019-04-07T02:42:40.908Z,4.3
2019-04-07T02:43:30.989Z,4.3
2019-04-07T02:44:20.631Z,4.3
2019-04-07T02:45:11.019Z,4.3
2019-04-07T02:46:00.621Z,4.3
2019-04-07T02:46:53.407Z,4.3
2019-04-07T02:47:41.800Z,4.2
2019-04-07T02:48:32.170Z,4.3
2019-04-07T02:49:21.659Z,4.2
2019-04-07T02:50:12.441Z,4.2
2019-04-07T02:51:01.680Z,4.2
2019-04-07T02:51:51.651Z,4.2
2019-04-07T02:52:41.730Z,4.2
2019-04-07T02:53:31.681Z,4.2
2019-04-07T02:54:21.648Z,4.2
2019-04-07T02:55:11.713Z,4.2
2019-04-07T02:56:01.954Z,4.2
2019-04-07T02:56:52.317Z,4.2
2019-04-07T02:57:42.159Z,4.2
2019-04-07T02:58:32.657Z,4.2
2019-04-07T02:59:23.045Z,4.1
2019-04-07T03:00:12.313Z,4.2
2019-04-07T03:01:02.192Z,4.2
2019-04-07T03:01:52.161Z,4.2
2019-04-07T03:02:42.147Z,4.2
2019-04-07T03:03:33.043Z,4.2
2019-04-07T03:04:23.095Z,4.1
2019-04-07T03:05:12.146Z,4.1
2019-04-07T03:06:02.193Z,4.1
2019-04-07T03:06:53.510Z,4.1
2019-04-07T03:07:43.007Z,4.1
2019-04-07T03:08:32.909Z,4.1
2019-04-07T03:09:22.903Z,4.1
2019-04-07T03:10:13.027Z,4.1
2019-04-07T03:11:02.855Z,4.1
2019-04-07T03:11:52.838Z,4.1
2019-04-07T03:12:43.428Z,4.1
2019-04-07T03:13:32.779Z,4.1
2019-04-07T03:14:22.895Z,4.1
2019-04-07T03:15:13.069Z,4.1
2019-04-07T03:16:02.808Z,4.1
2019-04-07T03:16:52.883Z,4.1
2019-04-07T03:17:43.601Z,4.1
2019-04-07T03:18:33.148Z,4.1
2019-04-07T03:19:23.453Z,4
2019-04-07T03:20:12.852Z,4.1
2019-04-07T03:21:03.627Z,4.1
2019-04-07T03:21:54.070Z,4.1
2019-04-07T03:22:43.870Z,4
2019-04-07T03:23:33.373Z,4
2019-04-07T03:24:24.455Z,4
2019-04-07T03:25:13.984Z,4
2019-04-07T03:26:04.236Z,4
2019-04-07T03:26:53.954Z,4
2019-04-07T03:27:44.464Z,4
2019-04-07T03:28:34.596Z,4
2019-04-07T03:29:23.966Z,4
2019-04-07T03:30:14.444Z,4
2019-04-07T03:31:04.554Z,4
2019-04-07T03:31:56.101Z,4
2019-04-07T03:32:46.581Z,4
2019-04-07T03:33:37.303Z,4
2019-04-07T03:34:26.581Z,4
2019-04-07T03:35:15.886Z,3.9
2019-04-07T03:36:06.594Z,3.9
2019-04-07T03:37:14.801Z,3.9
2019-04-07T03:37:46.886Z,3.9
2019-04-07T03:38:33.996Z,3.9
2019-04-07T03:39:24.460Z,3.9
2019-04-07T03:40:13.960Z,3.9
2019-04-07T03:41:03.945Z,3.9
2019-04-07T03:41:54.136Z,3.9
2019-04-07T03:42:43.955Z,3.9
2019-04-07T03:43:34.568Z,3.9
2019-04-07T03:44:24.455Z,3.9
2019-04-07T03:45:16.404Z,3.9
2019-04-07T03:46:04.176Z,3.9
2019-04-07T03:46:55.097Z,3.9
2019-04-07T03:47:45.620Z,3.9
2019-04-07T03:48:35.370Z,3.9
2019-04-07T03:49:25.368Z,3.9
2019-04-07T03:50:16.467Z,3.9
2019-04-07T03:51:04.925Z,3.8
2019-04-07T03:51:55.949Z,3.8
2019-04-07T03:52:45.049Z,3.8
2019-04-07T03:53:35.653Z,3.8
2019-04-07T03:54:24.786Z,3.8
2019-04-07T03:55:15.230Z,3.8
2019-04-07T03:56:04.838Z,3.8
2019-04-07T03:56:54.810Z,3.8
2019-04-07T03:57:44.950Z,3.8
2019-04-07T03:58:36.651Z,3.8
2019-04-07T03:59:26.802Z,3.8
2019-04-07T04:00:16.825Z,3.8
2019-04-07T04:01:06.749Z,3.8
2019-04-07T04:01:57.413Z,3.8
2019-04-07T04:02:46.917Z,3.8
2019-04-07T04:03:37.382Z,3.7
2019-04-07T04:04:27.508Z,3.7
2019-04-07T04:05:16.952Z,3.7
2019-04-07T04:06:06.870Z,3.7
2019-04-07T04:06:56.879Z,3.7
2019-04-07T04:07:47.211Z,3.7
2019-04-07T04:08:36.750Z,3.7
2019-04-07T04:09:26.704Z,3.7
2019-04-07T04:10:17.313Z,3.7
2019-04-07T04:11:07.431Z,3.7
2019-04-07T04:11:56.883Z,3.7
2019-04-07T04:12:46.856Z,3.7
2019-04-07T04:13:37.830Z,3.7
2019-04-07T04:14:26.700Z,3.7
2019-04-07T04:15:16.922Z,3.7
2019-04-07T04:16:08.043Z,3.7
2019-04-07T04:16:57.785Z,3.6
2019-04-07T04:17:47.783Z,3.6
2019-04-07T04:18:37.540Z,3.6
2019-04-07T04:19:27.452Z,3.6
2019-04-07T04:20:16.989Z,3.6
2019-04-07T04:21:09.006Z,3.6
2019-04-07T04:21:56.924Z,3.6
2019-04-07T04:22:46.994Z,3.6
2019-04-07T04:23:38.781Z,3.6
2019-04-07T04:24:26.967Z,3.6
2019-04-07T04:25:17.940Z,3.6
2019-04-07T04:26:09.628Z,3.6
2019-04-07T04:26:57.941Z,3.6
2019-04-07T04:27:48.606Z,3.6
2019-04-07T04:28:38.917Z,3.6
2019-04-07T04:29:27.921Z,3.6
2019-04-07T04:30:18.854Z,3.6
2019-04-07T04:31:09.194Z,3.6
2019-04-07T04:31:57.896Z,3.5
2019-04-07T04:32:48.254Z,3.5
2019-04-07T04:33:38.210Z,3.5
2019-04-07T04:34:28.451Z,3.5
2019-04-07T04:35:18.948Z,3.5
2019-04-07T04:36:10.871Z,3.5
2019-04-07T04:36:58.198Z,3.5
2019-04-07T04:37:51.742Z,3.5
2019-04-07T04:38:38.504Z,3.5
2019-04-07T04:39:29.326Z,3.5
2019-04-07T04:40:19.061Z,3.5
2019-04-07T04:41:08.238Z,3.5
2019-04-07T04:41:58.153Z,3.5
2019-04-07T04:42:48.497Z,3.5
2019-04-07T04:43:39.128Z,3.5
2019-04-07T04:44:29.327Z,3.5
2019-04-07T04:45:18.580Z,3.5
2019-04-07T04:46:10.690Z,3.4
2019-04-07T04:46:58.516Z,3.4
2019-04-07T04:47:48.401Z,3.4
2019-04-07T04:48:38.729Z,3.4
2019-04-07T04:49:28.844Z,3.4
2019-04-07T04:50:19.516Z,3.4
2019-04-07T04:51:09.823Z,3.4
2019-04-07T04:51:59.291Z,3.4
2019-04-07T04:52:49.313Z,3.4
2019-04-07T04:53:39.545Z,3.4
2019-04-07T04:54:31.668Z,3.4
2019-04-07T04:55:20.116Z,3.4
2019-04-07T04:56:10.112Z,3.4
2019-04-07T04:57:02.421Z,3.4
2019-04-07T04:57:50.976Z,3.4
2019-04-07T04:58:40.115Z,3.4
2019-04-07T04:59:31.151Z,3.4
2019-04-07T05:00:20.310Z,3.4
2019-04-07T05:01:10.638Z,3.4
2019-04-07T05:02:00.167Z,3.4
2019-04-07T05:02:50.175Z,3.4
2019-04-07T05:03:40.553Z,3.3
2019-04-07T05:04:30.186Z,3.3
2019-04-07T05:05:20.190Z,3.3
2019-04-07T05:06:10.268Z,3.3
2019-04-07T05:07:01.472Z,3.3
2019-04-07T05:07:58.839Z,3.3
2019-04-07T05:08:41.177Z,3.3
2019-04-07T05:09:40.836Z,3.3
2019-04-07T05:10:21.541Z,3.3
2019-04-07T05:11:11.478Z,3.3
2019-04-07T05:12:04.555Z,3.3
2019-04-07T05:12:51.508Z,3.3
2019-04-07T05:13:42.063Z,3.3
2019-04-07T05:14:31.421Z,3.3
2019-04-07T05:15:21.895Z,3.3
2019-04-07T05:16:11.832Z,3.3
2019-04-07T05:17:01.414Z,3.3
2019-04-07T05:17:51.412Z,3.3
2019-04-07T05:18:41.601Z,3.3
2019-04-07T05:19:32.238Z,3.3
2019-04-07T05:20:21.762Z,3.3
2019-04-07T05:21:11.849Z,3.3
2019-04-07T05:22:01.505Z,3.3
2019-04-07T05:22:52.120Z,3.3
2019-04-07T05:23:43.879Z,3.3
2019-04-07T05:24:35.034Z,3.3
2019-04-07T05:25:24.050Z,3.3
2019-04-07T05:26:13.721Z,3.3
2019-04-07T05:27:03.734Z,3.3
2019-04-07T05:27:53.748Z,3.3
2019-04-07T05:28:43.899Z,3.3
2019-04-07T05:29:34.034Z,3.3
2019-04-07T05:30:23.757Z,3.3
2019-04-07T05:31:14.491Z,3.3
2019-04-07T05:32:03.732Z,3.3
2019-04-07T05:32:54.482Z,3.3
2019-04-07T05:33:44.812Z,3.3
2019-04-07T05:34:34.469Z,3.3
2019-04-07T05:35:24.072Z,3.3
2019-04-07T05:36:13.739Z,3.3
2019-04-07T05:37:03.734Z,3.3
2019-04-07T05:38:01.175Z,3.3
2019-04-07T05:38:44.330Z,3.3
2019-04-07T05:39:33.735Z,3.3
2019-04-07T05:40:24.497Z,3.3
2019-04-07T05:41:14.140Z,3.3
2019-04-07T05:42:05.249Z,3.3
2019-04-07T05:42:55.505Z,3.3
2019-04-07T05:43:45.878Z,3.3
2019-04-07T05:44:35.593Z,3.3
2019-04-07T05:45:25.434Z,3.3
2019-04-07T05:46:16.002Z,3.3
2019-04-07T05:47:06.039Z,3.3
2019-04-07T05:47:55.442Z,3.4
2019-04-07T05:48:45.284Z,3.4
2019-04-07T05:49:35.538Z,3.4
2019-04-07T05:50:27.324Z,3.4
2019-04-07T05:51:17.683Z,3.4
2019-04-07T05:52:07.391Z,3.4
2019-04-07T05:52:57.548Z,3.4
2019-04-07T05:53:48.529Z,3.4
2019-04-07T05:54:37.847Z,3.4
2019-04-07T05:55:28.095Z,3.4
2019-04-07T05:56:17.610Z,3.4
2019-04-07T05:57:07.335Z,3.5
2019-04-07T05:57:57.542Z,3.5
2019-04-07T05:58:47.414Z,3.5
2019-04-07T05:59:37.654Z,3.5
2019-04-07T06:00:27.425Z,3.5
2019-04-07T06:01:20.699Z,3.5
2019-04-07T06:02:08.000Z,3.5
2019-04-07T06:02:58.197Z,3.5
2019-04-07T06:03:47.918Z,3.5
2019-04-07T06:04:37.361Z,3.5
2019-04-07T06:05:29.024Z,3.6
2019-04-07T06:06:18.983Z,3.6
2019-04-07T06:07:08.007Z,3.6
2019-04-07T06:08:00.817Z,3.6
2019-04-07T06:08:48.558Z,3.6
2019-04-07T06:09:37.436Z,3.7
2019-04-07T06:10:28.892Z,3.7
2019-04-07T06:11:17.367Z,3.7
2019-04-07T06:12:09.676Z,3.7
2019-04-07T06:12:59.548Z,3.8
2019-04-07T06:13:50.342Z,3.8
2019-04-07T06:14:39.046Z,3.8
2019-04-07T06:15:30.159Z,3.8
2019-04-07T06:16:20.411Z,3.8
2019-04-07T06:17:09.776Z,3.9
2019-04-07T06:18:01.361Z,3.9
2019-04-07T06:18:49.064Z,3.9
2019-04-07T06:19:41.159Z,3.9
2019-04-07T06:20:30.186Z,3.9
2019-04-07T06:21:19.041Z,3.9
2019-04-07T06:22:09.072Z,4
2019-04-07T06:22:59.594Z,4
2019-04-07T06:23:49.582Z,4
2019-04-07T06:24:39.421Z,4.1
2019-04-07T06:25:36.763Z,4.1
2019-04-07T06:26:19.656Z,4.1
2019-04-07T06:27:09.789Z,4.2
2019-04-07T06:27:59.033Z,4.2
2019-04-07T06:28:52.136Z,4.3
2019-04-07T06:29:39.111Z,4.3
2019-04-07T06:30:31.129Z,4.3
2019-04-07T06:31:19.611Z,4.3
2019-04-07T06:32:10.127Z,4.4
2019-04-07T06:32:59.107Z,4.4
2019-04-07T06:33:49.104Z,4.5
2019-04-07T06:34:40.945Z,4.5
2019-04-07T06:35:30.399Z,4.5
2019-04-07T06:36:20.223Z,4.6
2019-04-07T06:37:09.860Z,4.6
2019-04-07T06:38:03.916Z,4.6
2019-04-07T06:38:51.683Z,4.7
2019-04-07T06:39:39.260Z,4.7
2019-04-07T06:40:29.423Z,4.7
2019-04-07T06:41:19.047Z,4.8
2019-04-07T06:42:09.062Z,4.8
2019-04-07T06:42:59.078Z,4.8
2019-04-07T06:43:49.655Z,4.9
2019-04-07T06:44:39.036Z,4.9
2019-04-07T06:45:29.466Z,5
2019-04-07T06:46:19.585Z,5
2019-04-07T06:47:09.079Z,5
2019-04-07T06:48:01.394Z,5.1
2019-04-07T06:48:49.047Z,5.2
2019-04-07T06:49:42.623Z,5.2
2019-04-07T06:50:29.144Z,5.3
2019-04-07T06:51:20.528Z,5.3
2019-04-07T06:52:10.457Z,5.3
2019-04-07T06:52:59.835Z,5.3
2019-04-07T06:53:50.401Z,5.4
2019-04-07T06:54:39.862Z,5.5
2019-04-07T06:55:31.595Z,5.5
2019-04-07T06:56:20.728Z,5.5
2019-04-07T06:57:12.256Z,5.6
2019-04-07T06:58:02.078Z,5.6
2019-04-07T06:58:52.430Z,5.7
2019-04-07T06:59:44.916Z,5.7
2019-04-07T07:00:34.297Z,5.7
2019-04-07T07:01:24.431Z,5.8
2019-04-07T07:02:12.078Z,5.8
2019-04-07T07:03:04.184Z,5.9
2019-04-07T07:03:51.654Z,6
2019-04-07T07:04:43.973Z,6.1
2019-04-07T07:05:34.303Z,6.2
2019-04-07T07:06:21.914Z,6.2
2019-04-07T07:07:11.682Z,6.3
2019-04-07T07:08:01.937Z,6.3
2019-04-07T07:08:54.019Z,6.4
2019-04-07T07:09:41.761Z,6.4
2019-04-07T07:10:35.509Z,6.5
2019-04-07T07:11:27.938Z,6.5
2019-04-07T07:12:19.701Z,6.6
2019-04-07T07:13:03.543Z,6.6
2019-04-07T07:13:52.061Z,6.7
2019-04-07T07:14:44.867Z,6.7
2019-04-07T07:15:34.426Z,6.8
2019-04-07T07:16:21.834Z,6.8
2019-04-07T07:17:13.027Z,6.8
2019-04-07T07:18:02.446Z,6.8
2019-04-07T07:18:54.615Z,6.9
2019-04-07T07:19:42.227Z,7
2019-04-07T07:20:31.713Z,7
2019-04-07T07:21:24.126Z,7.1
2019-04-07T07:22:14.709Z,7.1
2019-04-07T07:23:01.763Z,7.2
2019-04-07T07:23:52.501Z,7.3
2019-04-07T07:24:42.711Z,7.3
2019-04-07T07:25:34.895Z,7.4
2019-04-07T07:26:24.469Z,7.4
2019-04-07T07:27:13.942Z,7.5
2019-04-07T07:28:04.316Z,7.5
2019-04-07T07:28:54.336Z,7.6
2019-04-07T07:29:45.822Z,7.7
2019-04-07T07:30:52.851Z,7.8
2019-04-07T07:31:40.251Z,7.9
2019-04-07T07:32:30.091Z,8
2019-04-07T07:33:20.282Z,8.1
2019-04-07T07:34:11.637Z,8.2
2019-04-07T07:35:01.267Z,8.3
2019-04-07T07:35:55.788Z,8.4
2019-04-07T07:36:52.195Z,8.5
2019-04-07T07:37:40.100Z,8.6
2019-04-07T07:38:31.007Z,8.7
2019-04-07T07:39:22.843Z,8.8
2019-04-07T07:40:15.820Z,8.9
2019-04-07T07:41:03.884Z,9.1
2019-04-07T07:41:53.060Z,9.3
2019-04-07T07:42:43.095Z,9.4
2019-04-07T07:43:33.695Z,9.6
2019-04-07T07:44:23.513Z,9.7
2019-04-07T07:45:13.968Z,9.8
2019-04-07T07:46:03.284Z,9.8
2019-04-07T07:46:53.773Z,9.9
2019-04-07T07:47:44.867Z,10.1
2019-04-07T07:48:33.450Z,10.2
2019-04-07T07:49:24.745Z,10.2
2019-04-07T07:50:14.532Z,10.3
2019-04-07T07:51:07.018Z,10.3
2019-04-07T07:51:54.323Z,10.4
2019-04-07T07:52:44.374Z,10.6
2019-04-07T07:53:34.405Z,10.7
2019-04-07T07:54:27.671Z,10.7
2019-04-07T07:55:14.314Z,10.8
2019-04-07T07:56:08.171Z,10.9
2019-04-07T07:56:54.479Z,10.9
2019-04-07T07:57:46.962Z,10.9
2019-04-07T07:58:34.742Z,10.9
2019-04-07T07:59:24.946Z,10.9
2019-04-07T08:00:14.550Z,10.9
2019-04-07T08:01:04.364Z,11
2019-04-07T08:01:54.521Z,11
2019-04-07T08:02:44.338Z,11
2019-04-07T08:03:35.070Z,11
2019-04-07T08:04:26.374Z,11
2019-04-07T08:05:14.286Z,11.1
2019-04-07T08:06:08.171Z,11.1
2019-04-07T08:06:55.235Z,11.2
2019-04-07T08:07:50.149Z,11.2
2019-04-07T08:08:36.396Z,11.3
2019-04-07T08:09:27.180Z,11.3
2019-04-07T08:10:17.043Z,11.4
2019-04-07T08:11:06.770Z,11.4
2019-04-07T08:11:56.548Z,11.5
2019-04-07T08:12:49.250Z,11.6
2019-04-07T08:13:41.995Z,11.8
2019-04-07T08:14:27.316Z,12
2019-04-07T08:15:17.047Z,12.1
2019-04-07T08:16:06.529Z,12.1
2019-04-07T08:17:00.095Z,12.2
2019-04-07T08:17:47.445Z,12.3
2019-04-07T08:18:38.727Z,12.4
2019-04-07T08:19:29.581Z,12.6
2019-04-07T08:20:16.481Z,12.6
2019-04-07T08:21:07.201Z,12.6
2019-04-07T08:21:57.150Z,12.5
2019-04-07T08:22:48.172Z,12.6
2019-04-07T08:23:37.320Z,12.7
2019-04-07T08:24:27.137Z,12.8
2019-04-07T08:25:16.487Z,12.9
2019-04-07T08:26:06.591Z,12.9
2019-04-07T08:26:58.309Z,13
2019-04-07T08:27:49.644Z,13.1
2019-04-07T08:28:36.883Z,13.3
2019-04-07T08:29:26.951Z,13.4
2019-04-07T08:30:17.264Z,13.6
2019-04-07T08:31:06.624Z,13.7
2019-04-07T08:31:56.621Z,13.7
2019-04-07T08:32:46.479Z,13.6
2019-04-07T08:33:36.492Z,13.6
2019-04-07T08:34:26.581Z,13.6
2019-04-07T08:35:16.559Z,13.7
2019-04-07T08:36:09.974Z,13.7
2019-04-07T08:36:57.372Z,13.9
2019-04-07T08:37:48.664Z,14
2019-04-07T08:38:36.680Z,14.1
2019-04-07T08:39:29.142Z,14.1
2019-04-07T08:40:16.467Z,14.1
2019-04-07T08:41:09.615Z,14.2
2019-04-07T08:41:57.211Z,14.2
2019-04-07T08:42:48.993Z,14.1
2019-04-07T08:43:37.409Z,14.1
2019-04-07T08:44:29.608Z,14
2019-04-07T08:45:17.906Z,14
2019-04-07T08:46:07.366Z,14.1
2019-04-07T08:46:58.150Z,14.1
2019-04-07T08:47:49.540Z,14.3
2019-04-07T08:48:37.458Z,14.3
2019-04-07T08:49:27.644Z,14.4
2019-04-07T08:50:17.345Z,14.4
2019-04-07T08:51:07.960Z,14.3
2019-04-07T08:51:57.331Z,14.4
2019-04-07T08:52:47.837Z,14.4
2019-04-07T08:53:37.769Z,14.5
2019-04-07T08:54:27.598Z,14.6
2019-04-07T08:55:20.017Z,14.6
2019-04-07T08:56:09.861Z,14.6
2019-04-07T08:57:01.017Z,14.6
2019-04-07T08:57:54.042Z,14.7
2019-04-07T08:58:44.060Z,14.7
2019-04-07T08:59:34.057Z,14.7
2019-04-07T09:00:24.869Z,14.7
2019-04-07T09:01:14.293Z,14.6
2019-04-07T09:02:07.569Z,14.6
2019-04-07T09:03:04.707Z,14.7
2019-04-07T09:03:49.668Z,14.7
2019-04-07T09:04:39.899Z,14.8
2019-04-07T09:05:31.863Z,14.9
2019-04-07T09:06:29.185Z,14.8
2019-04-07T09:07:18.695Z,14.8
2019-04-07T09:08:07.660Z,14.7
2019-04-07T09:08:57.461Z,14.7
2019-04-07T09:09:48.784Z,14.6
2019-04-07T09:10:39.344Z,14.7
2019-04-07T09:11:28.266Z,14.7
2019-04-07T09:12:17.807Z,14.7
2019-04-07T09:13:09.046Z,14.7
2019-04-07T09:13:58.159Z,14.7
2019-04-07T09:14:48.114Z,14.7
2019-04-07T09:15:39.076Z,14.7
2019-04-07T09:16:29.025Z,14.7
2019-04-07T09:17:30.578Z,14.7
2019-04-07T09:18:12.666Z,14.7
2019-04-07T09:19:05.848Z,14.7
2019-04-07T09:19:58.246Z,14.7
2019-04-07T09:20:48.449Z,14.8
2019-04-07T09:21:40.214Z,14.8
2019-04-07T09:22:25.916Z,14.8
2019-04-07T09:23:15.897Z,14.8
2019-04-07T09:24:05.961Z,14.8
2019-04-07T09:25:00.739Z,14.8
2019-04-07T09:25:47.252Z,14.9
2019-04-07T09:26:42.037Z,14.9
2019-04-07T09:27:30.036Z,14.9
2019-04-07T09:28:21.123Z,14.9
2019-04-07T09:29:09.683Z,14.9
2019-04-07T09:29:59.941Z,15
2019-04-07T09:30:49.918Z,15
2019-04-07T09:31:40.916Z,15.1
2019-04-07T09:32:30.196Z,15.1
2019-04-07T09:33:20.037Z,15.1
2019-04-07T09:34:10.052Z,15.2
2019-04-07T09:35:01.967Z,15.2
2019-04-07T09:35:50.847Z,15.3
2019-04-07T09:36:40.838Z,15.3
2019-04-07T09:37:31.010Z,15.3
2019-04-07T09:38:21.607Z,15.3
2019-04-07T09:39:11.156Z,15.4
2019-04-07T09:40:03.417Z,15.4
2019-04-07T09:40:51.748Z,15.4
2019-04-07T09:41:42.690Z,15.4
2019-04-07T09:42:31.031Z,15.4
2019-04-07T09:43:21.061Z,15.5
2019-04-07T09:44:11.536Z,15.5
2019-04-07T09:45:02.061Z,15.6
2019-04-07T09:45:51.826Z,15.6
2019-04-07T09:46:43.707Z,15.6
2019-04-07T09:47:32.255Z,15.6
2019-04-07T09:48:24.007Z,15.7
2019-04-07T09:49:13.588Z,15.6
2019-04-07T09:50:06.674Z,15.7
2019-04-07T09:50:58.594Z,15.7
2019-04-07T09:51:49.527Z,15.7
2019-04-07T09:52:39.659Z,15.8
2019-04-07T09:53:30.475Z,15.8
2019-04-07T09:54:21.918Z,15.8
2019-04-07T09:55:10.819Z,15.9
2019-04-07T09:56:02.717Z,16
2019-04-07T09:56:51.896Z,16
2019-04-07T09:57:42.006Z,16
2019-04-07T09:58:32.018Z,16.1
2019-04-07T09:59:21.939Z,16.1
2019-04-07T10:00:12.518Z,16.1
2019-04-07T10:01:06.155Z,16.2
2019-04-07T10:01:52.630Z,16.2
2019-04-07T10:02:42.581Z,16.3
2019-04-07T10:05:11.099Z,16.4
2019-04-07T10:06:19.131Z,16.4
2019-04-07T10:07:11.072Z,16.4
2019-04-07T10:08:02.313Z,16.4
2019-04-07T10:08:58.823Z,16.5
2019-04-07T10:09:48.692Z,16.5
2019-04-07T10:10:38.290Z,16.5
2019-04-07T10:11:28.503Z,16.6
2019-04-07T10:12:18.483Z,16.6
2019-04-07T10:13:07.849Z,16.6
2019-04-07T10:13:57.863Z,16.7
2019-04-07T10:14:48.718Z,16.7
2019-04-07T10:15:37.882Z,16.7
2019-04-07T10:16:28.251Z,16.8
2019-04-07T10:17:18.463Z,16.9
2019-04-07T10:18:08.678Z,16.9
2019-04-07T10:18:58.146Z,16.9
2019-04-07T10:19:50.501Z,16.9
2019-04-07T10:20:40.769Z,17
2019-04-07T10:21:31.151Z,17
2019-04-07T10:22:21.158Z,17
2019-04-07T10:23:10.792Z,17.1
2019-04-07T10:24:01.091Z,17.1
2019-04-07T10:24:51.708Z,17.2
2019-04-07T10:25:41.106Z,17.3
2019-04-07T10:26:32.510Z,17.3
2019-04-07T10:27:22.404Z,17.4
2019-04-07T10:28:13.628Z,17.4
2019-04-07T10:29:02.869Z,17.4
2019-04-07T10:29:53.166Z,17.5
2019-04-07T10:30:43.441Z,17.5
2019-04-07T10:31:32.768Z,17.5
2019-04-07T10:32:23.998Z,17.6
2019-04-07T10:33:13.259Z,17.6
2019-04-07T10:34:03.048Z,17.7
2019-04-07T10:34:52.605Z,17.7
2019-04-07T10:35:46.766Z,17.7
2019-04-07T10:36:37.418Z,17.7
2019-04-07T10:37:26.895Z,17.7
2019-04-07T10:38:21.497Z,17.7
2019-04-07T10:39:31.826Z,17.8
2019-04-07T10:41:54.324Z,17.9
2019-04-07T10:43:05.241Z,18
2019-04-07T10:43:59.984Z,18
2019-04-07T10:44:50.431Z,18.1
2019-04-07T10:45:40.559Z,18.1
2019-04-07T11:13:40.309Z,19.3
2019-04-07T11:14:29.710Z,19.3
2019-04-07T11:15:22.734Z,19.3
2019-04-07T11:16:17.422Z,19.3
2019-04-07T11:17:08.020Z,19.3
2019-04-07T11:17:58.123Z,19.4
2019-04-07T11:18:47.461Z,19.4
2019-04-07T11:36:00.840Z,20.1
2019-04-07T11:36:50.459Z,20.1
2019-04-07T11:48:54.777Z,20.4
2019-04-07T11:49:44.951Z,20.4
2019-04-07T11:50:34.394Z,20.4
2019-04-07T11:51:24.662Z,20.4
2019-04-07T11:52:14.773Z,20.5
2019-04-07T11:53:05.002Z,20.5
2019-04-07T11:53:54.369Z,20.5
2019-04-07T11:54:44.416Z,20.5
2019-04-07T11:55:34.642Z,20.5
2019-04-07T11:56:25.033Z,20.5
2019-04-07T11:57:15.354Z,20.6
2019-04-07T11:58:14.645Z,20.6
2019-04-07T11:58:57.303Z,20.6
2019-04-07T11:59:46.656Z,20.6
2019-04-07T12:00:42.144Z,20.6
2019-04-07T12:03:53.680Z,20.7
2019-04-07T12:04:42.474Z,20.7
2019-04-07T12:05:36.548Z,20.7
2019-04-07T12:06:25.671Z,20.7
2019-04-07T12:07:20.186Z,20.7
2019-04-07T12:18:32.858Z,21.1
2019-04-07T12:28:47.511Z,21.1
2019-04-07T12:30:54.907Z,21.2
2019-04-07T12:31:44.994Z,21.2
2019-04-07T12:53:43.356Z,21.6
2019-04-07T12:54:41.218Z,21.6
2019-04-07T12:55:31.508Z,21.6
2019-04-07T12:56:18.944Z,21.6
2019-04-07T12:57:12.204Z,21.5
2019-04-07T12:58:02.037Z,21.5
2019-04-07T12:58:54.492Z,21.5
2019-04-07T12:59:48.585Z,21.5
2019-04-07T13:00:51.693Z,21.6
2019-04-07T13:01:25.600Z,21.6
2019-04-07T13:02:18.916Z,21.7
2019-04-07T13:03:05.938Z,21.7
2019-04-07T13:03:55.865Z,21.6
2019-04-07T13:04:46.302Z,21.5
2019-04-07T13:05:36.704Z,21.5
2019-04-07T13:06:26.577Z,21.5
2019-04-07T13:07:19.391Z,21.5
2019-04-07T13:08:07.024Z,21.5
2019-04-07T13:08:58.111Z,21.5
2019-04-07T13:09:46.501Z,21.6
2019-04-07T13:10:38.241Z,21.5
2019-04-07T13:22:57.021Z,21.5